sensor_id;sensor_type;location;lat;lon;timestamp;pressure;altitude;pressure_sealevel;temperature;humidity
43621;BME280;29213;50.770;7.298;2024-01-30T00:00:35;102089.31;;;3.34;60.53
43621;BME280;29213;50.770;7.298;2024-01-30T00:03:01;102062.19;;;3.15;60.47
43621;BME280;29213;50.770;7.298;2024-01-30T00:05:26;102011.28;;;2.80;60.43
43621;BME280;29213;50.770;7.298;2024-01-30T00:07:52;102096.41;;;3.32;60.19
43621;BME280;29213;50.770;7.298;2024-01-30T00:10:17;102116.00;;;3.44;60.66
43621;BME280;29213;50.770;7.298;2024-01-30T00:12:43;102129.13;;;3.46;60.52
43621;BME280;29213;50.770;7.298;2024-01-30T00:15:08;102107.63;;;3.36;61.11
43621;BME280;29213;50.770;7.298;2024-01-30T00:17:36;102069.34;;;3.13;60.98
43621;BME280;29213;50.770;7.298;2024-01-30T00:20:02;102118.91;;;3.40;60.51
43621;BME280;29213;50.770;7.298;2024-01-30T00:22:31;102128.25;;;3.45;60.78
43621;BME280;29213;50.770;7.298;2024-01-30T00:24:56;102054.94;;;3.02;61.63
43621;BME280;29213;50.770;7.298;2024-01-30T00:27:22;102072.03;;;3.11;61.28
43621;BME280;29213;50.770;7.298;2024-01-30T00:29:47;102081.31;;;3.18;61.47
43621;BME280;29213;50.770;7.298;2024-01-30T00:32:13;102085.50;;;3.22;61.34
43621;BME280;29213;50.770;7.298;2024-01-30T00:34:38;102130.81;;;3.47;61.01
43621;BME280;29213;50.770;7.298;2024-01-30T00:37:03;102096.66;;;3.28;60.96
43621;BME280;29213;50.770;7.298;2024-01-30T00:39:29;102065.84;;;3.12;61.21
43621;BME280;29213;50.770;7.298;2024-01-30T00:41:54;102034.56;;;2.88;60.82
43621;BME280;29213;50.770;7.298;2024-01-30T00:44:20;102101.78;;;3.31;61.09
43621;BME280;29213;50.770;7.298;2024-01-30T00:46:45;102117.97;;;3.41;61.19
43621;BME280;29213;50.770;7.298;2024-01-30T00:49:11;102124.16;;;3.40;61.10
43621;BME280;29213;50.770;7.298;2024-01-30T00:51:36;101948.53;;;2.37;61.39
43621;BME280;29213;50.770;7.298;2024-01-30T00:54:02;102099.38;;;3.26;61.43
43621;BME280;29213;50.770;7.298;2024-01-30T00:56:28;102112.00;;;3.37;61.94
43621;BME280;29213;50.770;7.298;2024-01-30T00:58:53;101997.19;;;2.64;62.04
43621;BME280;29213;50.770;7.298;2024-01-30T01:01:19;102118.97;;;3.38;62.08
43621;BME280;29213;50.770;7.298;2024-01-30T01:03:44;102088.06;;;3.24;61.19
43621;BME280;29213;50.770;7.298;2024-01-30T01:06:10;102112.84;;;3.38;61.58
43621;BME280;29213;50.770;7.298;2024-01-30T01:08:36;102076.31;;;3.14;61.79
43621;BME280;29213;50.770;7.298;2024-01-30T01:11:02;102052.44;;;2.99;61.53
43621;BME280;29213;50.770;7.298;2024-01-30T01:13:28;102113.78;;;3.37;61.58
43621;BME280;29213;50.770;7.298;2024-01-30T01:15:54;102027.81;;;2.82;61.60
43621;BME280;29213;50.770;7.298;2024-01-30T01:18:20;102113.06;;;3.33;61.19
43621;BME280;29213;50.770;7.298;2024-01-30T01:20:45;102020.09;;;2.79;61.77
43621;BME280;29213;50.770;7.298;2024-01-30T01:23:11;102107.06;;;3.31;61.49
43621;BME280;29213;50.770;7.298;2024-01-30T01:25:36;102032.19;;;2.84;61.43
43621;BME280;29213;50.770;7.298;2024-01-30T01:28:02;102055.25;;;2.96;61.23
43621;BME280;29213;50.770;7.298;2024-01-30T01:30:27;102054.63;;;2.91;61.31
43621;BME280;29213;50.770;7.298;2024-01-30T01:32:54;102073.50;;;2.99;61.56
43621;BME280;29213;50.770;7.298;2024-01-30T01:35:26;101993.38;;;2.52;61.08
43621;BME280;29213;50.770;7.298;2024-01-30T01:37:52;102110.06;;;3.23;61.01
43621;BME280;29213;50.770;7.298;2024-01-30T01:40:25;102093.09;;;3.11;61.68
43621;BME280;29213;50.770;7.298;2024-01-30T01:42:52;102114.53;;;3.21;61.63
43621;BME280;29213;50.770;7.298;2024-01-30T01:45:18;102016.53;;;2.63;61.69
43621;BME280;29213;50.770;7.298;2024-01-30T01:47:45;102113.78;;;3.19;62.22
43621;BME280;29213;50.770;7.298;2024-01-30T01:50:13;102020.25;;;2.59;62.03
43621;BME280;29213;50.770;7.298;2024-01-30T01:52:40;102120.91;;;3.17;62.69
43621;BME280;29213;50.770;7.298;2024-01-30T01:55:06;102094.41;;;3.02;62.16
43621;BME280;29213;50.770;7.298;2024-01-30T01:57:33;102073.81;;;2.93;62.66
43621;BME280;29213;50.770;7.298;2024-01-30T02:00:01;102041.28;;;2.76;62.22
43621;BME280;29213;50.770;7.298;2024-01-30T02:02:30;102112.16;;;3.16;63.38
43621;BME280;29213;50.770;7.298;2024-01-30T02:04:57;102100.75;;;3.16;62.84
43621;BME280;29213;50.770;7.298;2024-01-30T02:07:22;102046.97;;;2.86;62.18
43621;BME280;29213;50.770;7.298;2024-01-30T02:09:48;102077.56;;;3.06;62.25
43621;BME280;29213;50.770;7.298;2024-01-30T02:12:13;102092.09;;;3.14;62.70
43621;BME280;29213;50.770;7.298;2024-01-30T02:14:48;102061.44;;;2.95;62.57
43621;BME280;29213;50.770;7.298;2024-01-30T02:17:15;101999.06;;;2.62;62.56
43621;BME280;29213;50.770;7.298;2024-01-30T02:19:41;102103.19;;;3.20;62.54
43621;BME280;29213;50.770;7.298;2024-01-30T02:22:07;102068.78;;;3.06;62.36
43621;BME280;29213;50.770;7.298;2024-01-30T02:24:32;102094.34;;;3.21;62.42
43621;BME280;29213;50.770;7.298;2024-01-30T02:26:58;102081.63;;;3.12;62.87
43621;BME280;29213;50.770;7.298;2024-01-30T02:29:23;102065.38;;;3.04;63.35
43621;BME280;29213;50.770;7.298;2024-01-30T02:31:49;102061.13;;;3.01;62.83
43621;BME280;29213;50.770;7.298;2024-01-30T02:34:14;102062.44;;;3.10;62.54
43621;BME280;29213;50.770;7.298;2024-01-30T02:36:43;102084.50;;;3.25;62.38
43621;BME280;29213;50.770;7.298;2024-01-30T02:39:09;102088.69;;;3.29;62.28
43621;BME280;29213;50.770;7.298;2024-01-30T02:41:35;102002.63;;;2.78;63.18
43621;BME280;29213;50.770;7.298;2024-01-30T02:44:01;102058.13;;;3.09;63.77
43621;BME280;29213;50.770;7.298;2024-01-30T02:46:26;101991.31;;;2.59;64.32
43621;BME280;29213;50.770;7.298;2024-01-30T02:48:52;102025.91;;;2.86;64.27
43621;BME280;29213;50.770;7.298;2024-01-30T02:51:17;102080.09;;;3.26;64.21
43621;BME280;29213;50.770;7.298;2024-01-30T02:53:43;102084.34;;;3.28;64.22
43621;BME280;29213;50.770;7.298;2024-01-30T02:56:08;101999.75;;;2.83;64.48
43621;BME280;29213;50.770;7.298;2024-01-30T02:58:39;102079.78;;;3.32;65.08
43621;BME280;29213;50.770;7.298;2024-01-30T03:01:04;101932.28;;;2.47;64.79
43621;BME280;29213;50.770;7.298;2024-01-30T03:03:29;102023.50;;;2.99;64.91
43621;BME280;29213;50.770;7.298;2024-01-30T03:05:55;101984.88;;;2.82;64.50
43621;BME280;29213;50.770;7.298;2024-01-30T03:08:20;101982.25;;;2.82;64.17
43621;BME280;29213;50.770;7.298;2024-01-30T03:10:46;102041.06;;;3.16;64.01
43621;BME280;29213;50.770;7.298;2024-01-30T03:13:12;102028.53;;;3.04;65.71
43621;BME280;29213;50.770;7.298;2024-01-30T03:15:37;102075.03;;;3.39;65.89
43621;BME280;29213;50.770;7.298;2024-01-30T03:18:03;101965.84;;;2.77;65.03
43621;BME280;29213;50.770;7.298;2024-01-30T03:20:31;102059.16;;;3.40;65.62
43621;BME280;29213;50.770;7.298;2024-01-30T03:22:57;102070.28;;;3.45;65.39
43621;BME280;29213;50.770;7.298;2024-01-30T03:25:25;102045.63;;;3.30;66.17
43621;BME280;29213;50.770;7.298;2024-01-30T03:27:50;102038.97;;;3.23;65.65
43621;BME280;29213;50.770;7.298;2024-01-30T03:30:16;102080.69;;;3.48;65.91
43621;BME280;29213;50.770;7.298;2024-01-30T03:32:42;101968.72;;;2.90;65.83
43621;BME280;29213;50.770;7.298;2024-01-30T03:35:08;102065.31;;;3.57;65.23
43621;BME280;29213;50.770;7.298;2024-01-30T03:37:34;101973.16;;;3.05;64.92
43621;BME280;29213;50.770;7.298;2024-01-30T03:39:59;102068.31;;;3.67;64.41
43621;BME280;29213;50.770;7.298;2024-01-30T03:42:25;102024.50;;;3.48;64.26
43621;BME280;29213;50.770;7.298;2024-01-30T03:44:50;102064.25;;;3.77;63.60
43621;BME280;29213;50.770;7.298;2024-01-30T03:47:20;102006.72;;;3.35;63.75
43621;BME280;29213;50.770;7.298;2024-01-30T03:49:46;102009.91;;;3.42;63.02
43621;BME280;29213;50.770;7.298;2024-01-30T03:52:12;102065.19;;;3.76;62.73
43621;BME280;29213;50.770;7.298;2024-01-30T03:54:37;102028.00;;;3.48;62.97
43621;BME280;29213;50.770;7.298;2024-01-30T03:57:03;102021.78;;;3.49;62.38
43621;BME280;29213;50.770;7.298;2024-01-30T03:59:28;102044.16;;;3.58;62.54
43621;BME280;29213;50.770;7.298;2024-01-30T04:01:54;102069.00;;;3.70;62.99
43621;BME280;29213;50.770;7.298;2024-01-30T04:04:19;102005.94;;;3.33;62.62
43621;BME280;29213;50.770;7.298;2024-01-30T04:06:46;102023.91;;;3.43;62.39
43621;BME280;29213;50.770;7.298;2024-01-30T04:09:12;102062.19;;;3.66;62.66
43621;BME280;29213;50.770;7.298;2024-01-30T04:11:41;102054.00;;;3.55;62.38
43621;BME280;29213;50.770;7.298;2024-01-30T04:14:07;102010.63;;;3.28;62.09
43621;BME280;29213;50.770;7.298;2024-01-30T04:16:33;101946.88;;;2.88;62.63
43621;BME280;29213;50.770;7.298;2024-01-30T04:18:58;101996.38;;;3.15;61.90
43621;BME280;29213;50.770;7.298;2024-01-30T04:21:24;102058.50;;;3.53;62.26
43621;BME280;29213;50.770;7.298;2024-01-30T04:23:51;101987.78;;;3.11;62.63
43621;BME280;29213;50.770;7.298;2024-01-30T04:26:16;102005.22;;;3.14;62.29
43621;BME280;29213;50.770;7.298;2024-01-30T04:28:44;101977.97;;;2.97;62.06
43621;BME280;29213;50.770;7.298;2024-01-30T04:31:09;102039.41;;;3.31;62.32
43621;BME280;29213;50.770;7.298;2024-01-30T04:33:35;102008.00;;;3.11;62.07
43621;BME280;29213;50.770;7.298;2024-01-30T04:36:01;102013.81;;;3.17;62.16
43621;BME280;29213;50.770;7.298;2024-01-30T04:38:26;101997.78;;;3.04;62.35
43621;BME280;29213;50.770;7.298;2024-01-30T04:40:51;101980.00;;;2.92;62.48
43621;BME280;29213;50.770;7.298;2024-01-30T04:43:17;102003.03;;;3.04;62.56
43621;BME280;29213;50.770;7.298;2024-01-30T04:45:44;102058.72;;;3.32;62.13
43621;BME280;29213;50.770;7.298;2024-01-30T04:48:09;102023.41;;;3.18;61.82
43621;BME280;29213;50.770;7.298;2024-01-30T04:50:35;102035.22;;;3.27;62.65
43621;BME280;29213;50.770;7.298;2024-01-30T04:53:00;102025.97;;;3.20;62.44
43621;BME280;29213;50.770;7.298;2024-01-30T04:55:25;102033.09;;;3.18;62.39
43621;BME280;29213;50.770;7.298;2024-01-30T04:57:51;102020.53;;;3.05;61.93
43621;BME280;29213;50.770;7.298;2024-01-30T05:00:17;101985.59;;;2.86;62.10
43621;BME280;29213;50.770;7.298;2024-01-30T05:02:42;102034.50;;;3.07;62.17
43621;BME280;29213;50.770;7.298;2024-01-30T05:05:08;101988.34;;;2.82;62.02
43621;BME280;29213;50.770;7.298;2024-01-30T05:07:33;101988.53;;;2.79;62.32
43621;BME280;29213;50.770;7.298;2024-01-30T05:09:59;102037.13;;;3.07;61.91
43621;BME280;29213;50.770;7.298;2024-01-30T05:12:25;101965.63;;;2.64;62.31
43621;BME280;29213;50.770;7.298;2024-01-30T05:14:50;101967.38;;;2.63;62.30
43621;BME280;29213;50.770;7.298;2024-01-30T05:17:16;102041.59;;;3.05;62.02
43621;BME280;29213;50.770;7.298;2024-01-30T05:19:43;101918.41;;;2.25;61.70
43621;BME280;29213;50.770;7.298;2024-01-30T05:22:09;102002.06;;;2.72;61.99
43621;BME280;29213;50.770;7.298;2024-01-30T05:24:35;101931.34;;;2.30;62.20
43621;BME280;29213;50.770;7.298;2024-01-30T05:27:01;101984.91;;;2.64;61.93
43621;BME280;29213;50.770;7.298;2024-01-30T05:29:27;101990.22;;;2.63;62.06
43621;BME280;29213;50.770;7.298;2024-01-30T05:31:52;101950.22;;;2.38;62.24
43621;BME280;29213;50.770;7.298;2024-01-30T05:34:17;102027.00;;;2.82;62.33
43621;BME280;29213;50.770;7.298;2024-01-30T05:36:43;101935.50;;;2.34;62.12
43621;BME280;29213;50.770;7.298;2024-01-30T05:39:08;101973.97;;;2.54;62.48
43621;BME280;29213;50.770;7.298;2024-01-30T05:41:34;102045.41;;;3.00;61.99
43621;BME280;29213;50.770;7.298;2024-01-30T05:43:59;102039.53;;;2.94;62.32
43621;BME280;29213;50.770;7.298;2024-01-30T05:46:25;101963.91;;;2.45;61.57
43621;BME280;29213;50.770;7.298;2024-01-30T05:48:50;102048.59;;;2.89;61.21
43621;BME280;29213;50.770;7.298;2024-01-30T05:51:15;102000.44;;;2.51;62.16
43621;BME280;29213;50.770;7.298;2024-01-30T05:53:41;102046.41;;;2.79;61.78
43621;BME280;29213;50.770;7.298;2024-01-30T05:56:06;102002.91;;;2.54;61.91
43621;BME280;29213;50.770;7.298;2024-01-30T05:58:32;102009.94;;;2.54;62.29
43621;BME280;29213;50.770;7.298;2024-01-30T06:00:57;102027.00;;;2.64;61.70
43621;BME280;29213;50.770;7.298;2024-01-30T06:03:23;102003.13;;;2.50;61.76
43621;BME280;29213;50.770;7.298;2024-01-30T06:05:49;102006.75;;;2.47;61.39
43621;BME280;29213;50.770;7.298;2024-01-30T06:08:14;102035.72;;;2.65;61.64
43621;BME280;29213;50.770;7.298;2024-01-30T06:10:40;101994.94;;;2.38;61.93
43621;BME280;29213;50.770;7.298;2024-01-30T06:13:05;101993.28;;;2.36;62.12
43621;BME280;29213;50.770;7.298;2024-01-30T06:15:31;102029.31;;;2.53;61.84
43621;BME280;29213;50.770;7.298;2024-01-30T06:17:58;102039.44;;;2.61;61.62
43621;BME280;29213;50.770;7.298;2024-01-30T06:20:23;101956.91;;;2.09;62.29
43621;BME280;29213;50.770;7.298;2024-01-30T06:22:49;101986.34;;;2.35;62.35
43621;BME280;29213;50.770;7.298;2024-01-30T06:25:14;101926.06;;;1.93;61.23
43621;BME280;29213;50.770;7.298;2024-01-30T06:27:40;101980.81;;;2.22;61.85
43621;BME280;29213;50.770;7.298;2024-01-30T06:30:06;101979.19;;;2.19;62.05
43621;BME280;29213;50.770;7.298;2024-01-30T06:32:31;101982.75;;;2.18;61.84
43621;BME280;29213;50.770;7.298;2024-01-30T06:35:00;101955.44;;;2.03;61.68
43621;BME280;29213;50.770;7.298;2024-01-30T06:37:26;102001.63;;;2.26;62.20
43621;BME280;29213;50.770;7.298;2024-01-30T06:39:51;102028.88;;;2.43;62.24
43621;BME280;29213;50.770;7.298;2024-01-30T06:42:18;101881.63;;;1.52;61.65
43621;BME280;29213;50.770;7.298;2024-01-30T06:44:43;102013.00;;;2.27;61.94
43621;BME280;29213;50.770;7.298;2024-01-30T06:47:09;101989.06;;;2.14;61.55
43621;BME280;29213;50.770;7.298;2024-01-30T06:49:34;102005.34;;;2.22;62.31
43621;BME280;29213;50.770;7.298;2024-01-30T06:52:00;102034.59;;;2.34;61.72
43621;BME280;29213;50.770;7.298;2024-01-30T06:54:25;102029.09;;;2.38;62.05
43621;BME280;29213;50.770;7.298;2024-01-30T06:56:51;102025.63;;;2.38;62.38
43621;BME280;29213;50.770;7.298;2024-01-30T06:59:16;101996.66;;;2.20;62.58
43621;BME280;29213;50.770;7.298;2024-01-30T07:01:41;102066.41;;;2.47;62.66
43621;BME280;29213;50.770;7.298;2024-01-30T07:04:07;101988.31;;;2.12;62.35
43621;BME280;29213;50.770;7.298;2024-01-30T07:06:32;102032.66;;;2.37;62.61
43621;BME280;29213;50.770;7.298;2024-01-30T07:08:58;102046.97;;;2.49;62.81
43621;BME280;29213;50.770;7.298;2024-01-30T07:11:23;102038.69;;;2.39;62.48
43621;BME280;29213;50.770;7.298;2024-01-30T07:13:51;102024.09;;;2.34;63.05
43621;BME280;29213;50.770;7.298;2024-01-30T07:16:16;101966.66;;;2.07;62.75
43621;BME280;29213;50.770;7.298;2024-01-30T07:18:42;101979.34;;;2.16;63.02
43621;BME280;29213;50.770;7.298;2024-01-30T07:21:08;101989.47;;;2.24;62.95
43621;BME280;29213;50.770;7.298;2024-01-30T07:23:33;101941.84;;;1.93;62.60
43621;BME280;29213;50.770;7.298;2024-01-30T07:26:01;101963.09;;;2.08;62.69
43621;BME280;29213;50.770;7.298;2024-01-30T07:28:26;101933.06;;;1.94;62.66
43621;BME280;29213;50.770;7.298;2024-01-30T07:30:52;102045.72;;;2.58;63.76
43621;BME280;29213;50.770;7.298;2024-01-30T07:33:17;102011.78;;;2.34;63.65
43621;BME280;29213;50.770;7.298;2024-01-30T07:35:43;102005.44;;;2.38;63.65
43621;BME280;29213;50.770;7.298;2024-01-30T07:38:09;101985.28;;;2.39;63.54
43621;BME280;29213;50.770;7.298;2024-01-30T07:40:34;102016.06;;;2.54;63.78
43621;BME280;29213;50.770;7.298;2024-01-30T07:42:59;102039.53;;;2.77;63.57
43621;BME280;29213;50.770;7.298;2024-01-30T07:45:26;101983.09;;;2.47;63.54
43621;BME280;29213;50.770;7.298;2024-01-30T07:47:52;102026.31;;;2.78;64.71
43621;BME280;29213;50.770;7.298;2024-01-30T07:50:18;102041.59;;;2.88;64.83
43621;BME280;29213;50.770;7.298;2024-01-30T07:52:44;102013.03;;;2.62;65.41
43621;BME280;29213;50.770;7.298;2024-01-30T07:55:10;102046.97;;;2.86;66.47
43621;BME280;29213;50.770;7.298;2024-01-30T07:57:35;102040.47;;;2.93;66.43
43621;BME280;29213;50.770;7.298;2024-01-30T08:00:03;102051.38;;;3.03;66.05
43621;BME280;29213;50.770;7.298;2024-01-30T08:02:30;101997.81;;;2.69;66.86
43621;BME280;29213;50.770;7.298;2024-01-30T08:04:56;101946.53;;;2.43;66.25
43621;BME280;29213;50.770;7.298;2024-01-30T08:07:21;101993.94;;;2.76;66.10
43621;BME280;29213;50.770;7.298;2024-01-30T08:09:47;101983.50;;;2.75;65.54
43621;BME280;29213;50.770;7.298;2024-01-30T08:12:13;102060.03;;;3.23;66.10
43621;BME280;29213;50.770;7.298;2024-01-30T08:14:38;102062.19;;;3.32;65.59
43621;BME280;29213;50.770;7.298;2024-01-30T08:17:05;102094.38;;;3.55;65.70
43621;BME280;29213;50.770;7.298;2024-01-30T08:19:30;102081.91;;;3.59;65.60
43621;BME280;29213;50.770;7.298;2024-01-30T08:21:55;102083.53;;;3.61;65.48
43621;BME280;29213;50.770;7.298;2024-01-30T08:24:21;102084.75;;;3.54;66.51
43621;BME280;29213;50.770;7.298;2024-01-30T08:26:46;102065.03;;;3.45;66.78
43621;BME280;29213;50.770;7.298;2024-01-30T08:29:12;102000.34;;;3.06;67.13
43621;BME280;29213;50.770;7.298;2024-01-30T08:31:37;102074.75;;;3.61;66.92
43621;BME280;29213;50.770;7.298;2024-01-30T08:34:02;102037.00;;;3.44;66.79
43621;BME280;29213;50.770;7.298;2024-01-30T08:36:28;102069.16;;;3.67;66.73
43621;BME280;29213;50.770;7.298;2024-01-30T08:38:53;102014.38;;;3.40;67.15
43621;BME280;29213;50.770;7.298;2024-01-30T08:41:19;101999.50;;;3.39;67.13
43621;BME280;29213;50.770;7.298;2024-01-30T08:43:44;102010.94;;;3.56;66.72
43621;BME280;29213;50.770;7.298;2024-01-30T08:46:10;101992.91;;;3.48;66.58
43621;BME280;29213;50.770;7.298;2024-01-30T08:48:36;101893.69;;;2.99;66.79
43621;BME280;29213;50.770;7.298;2024-01-30T08:51:01;102050.56;;;4.02;66.53
43621;BME280;29213;50.770;7.298;2024-01-30T08:53:27;101969.94;;;3.50;66.84
43621;BME280;29213;50.770;7.298;2024-01-30T08:55:52;102040.97;;;4.01;66.85
43621;BME280;29213;50.770;7.298;2024-01-30T08:58:18;101974.72;;;3.59;66.41
43621;BME280;29213;50.770;7.298;2024-01-30T09:00:44;102057.84;;;4.15;66.73
43621;BME280;29213;50.770;7.298;2024-01-30T09:03:09;102061.75;;;4.24;66.15
43621;BME280;29213;50.770;7.298;2024-01-30T09:05:35;102062.91;;;4.34;65.88
43621;BME280;29213;50.770;7.298;2024-01-30T09:08:00;101979.56;;;3.83;65.43
43621;BME280;29213;50.770;7.298;2024-01-30T09:10:26;102020.72;;;4.18;65.30
43621;BME280;29213;50.770;7.298;2024-01-30T09:12:52;102035.25;;;4.25;65.52
43621;BME280;29213;50.770;7.298;2024-01-30T09:15:17;101932.41;;;3.62;65.11
43621;BME280;29213;50.770;7.298;2024-01-30T09:17:44;101999.97;;;4.12;65.07
43621;BME280;29213;50.770;7.298;2024-01-30T09:20:10;102077.91;;;4.66;65.40
43621;BME280;29213;50.770;7.298;2024-01-30T09:22:35;101972.59;;;4.14;65.01
43621;BME280;29213;50.770;7.298;2024-01-30T09:25:01;102084.75;;;4.85;64.74
43621;BME280;29213;50.770;7.298;2024-01-30T09:27:26;102055.75;;;4.68;65.14
43621;BME280;29213;50.770;7.298;2024-01-30T09:29:51;102101.31;;;5.03;64.73
43621;BME280;29213;50.770;7.298;2024-01-30T09:32:17;102035.84;;;4.63;64.87
43621;BME280;29213;50.770;7.298;2024-01-30T09:34:44;102092.75;;;5.14;64.58
43621;BME280;29213;50.770;7.298;2024-01-30T09:37:09;102026.00;;;4.81;64.48
43621;BME280;29213;50.770;7.298;2024-01-30T09:39:35;102074.47;;;5.11;65.29
43621;BME280;29213;50.770;7.298;2024-01-30T09:42:05;102101.00;;;5.38;64.86
43621;BME280;29213;50.770;7.298;2024-01-30T09:44:35;102104.06;;;5.46;64.85
43621;BME280;29213;50.770;7.298;2024-01-30T09:47:02;102094.03;;;5.37;64.55
43621;BME280;29213;50.770;7.298;2024-01-30T09:49:34;102045.88;;;5.17;64.81
43621;BME280;29213;50.770;7.298;2024-01-30T09:52:01;102030.88;;;5.18;64.59
43621;BME280;29213;50.770;7.298;2024-01-30T09:54:29;102106.13;;;5.70;64.48
43621;BME280;29213;50.770;7.298;2024-01-30T09:56:55;102089.97;;;5.75;64.49
43621;BME280;29213;50.770;7.298;2024-01-30T09:59:20;102042.13;;;5.65;63.76
43621;BME280;29213;50.770;7.298;2024-01-30T10:01:46;102041.75;;;5.71;63.53
43621;BME280;29213;50.770;7.298;2024-01-30T10:04:11;102064.84;;;5.97;63.70
43621;BME280;29213;50.770;7.298;2024-01-30T10:06:37;102078.50;;;6.18;63.45
43621;BME280;29213;50.770;7.298;2024-01-30T10:09:02;102031.09;;;6.15;62.77
43621;BME280;29213;50.770;7.298;2024-01-30T10:11:28;102013.19;;;6.33;63.65
43621;BME280;29213;50.770;7.298;2024-01-30T10:13:53;102023.03;;;6.59;62.40
43621;BME280;29213;50.770;7.298;2024-01-30T10:16:19;102105.66;;;7.17;61.61
43621;BME280;29213;50.770;7.298;2024-01-30T10:18:44;102107.97;;;7.09;61.02
43621;BME280;29213;50.770;7.298;2024-01-30T10:21:10;102108.06;;;7.07;61.03
43621;BME280;29213;50.770;7.298;2024-01-30T10:23:36;102091.91;;;6.85;61.29
43621;BME280;29213;50.770;7.298;2024-01-30T10:26:05;102065.06;;;6.63;60.96
43621;BME280;29213;50.770;7.298;2024-01-30T10:28:32;102111.75;;;6.92;61.28
43621;BME280;29213;50.770;7.298;2024-01-30T10:30:58;102113.31;;;6.94;61.14
43621;BME280;29213;50.770;7.298;2024-01-30T10:33:26;102108.69;;;6.98;61.63
43621;BME280;29213;50.770;7.298;2024-01-30T10:36:00;102076.25;;;6.81;61.48
43621;BME280;29213;50.770;7.298;2024-01-30T10:38:28;102105.94;;;7.13;61.72
43621;BME280;29213;50.770;7.298;2024-01-30T10:40:56;102096.84;;;7.17;61.09
43621;BME280;29213;50.770;7.298;2024-01-30T10:43:22;101947.75;;;6.35;61.03
43621;BME280;29213;50.770;7.298;2024-01-30T10:45:52;102042.47;;;6.98;60.52
43621;BME280;29213;50.770;7.298;2024-01-30T10:48:18;102041.81;;;7.07;60.70
43621;BME280;29213;50.770;7.298;2024-01-30T10:50:47;102087.13;;;7.17;59.93
43621;BME280;29213;50.770;7.298;2024-01-30T10:53:14;102058.13;;;6.88;60.42
43621;BME280;29213;50.770;7.298;2024-01-30T10:55:42;102075.00;;;7.00;60.73
43621;BME280;29213;50.770;7.298;2024-01-30T10:58:08;102061.22;;;6.95;60.71
43621;BME280;29213;50.770;7.298;2024-01-30T11:00:37;102119.22;;;7.26;60.83
43621;BME280;29213;50.770;7.298;2024-01-30T11:03:04;102045.00;;;7.00;60.79
43621;BME280;29213;50.770;7.298;2024-01-30T11:05:30;102022.56;;;7.05;60.58
43621;BME280;29213;50.770;7.298;2024-01-30T11:07:55;102035.72;;;7.20;60.45
43621;BME280;29213;50.770;7.298;2024-01-30T11:10:24;102050.31;;;7.39;60.55
43621;BME280;29213;50.770;7.298;2024-01-30T11:12:50;102096.22;;;7.65;60.19
43621;BME280;29213;50.770;7.298;2024-01-30T11:15:16;102084.13;;;7.61;60.51
43621;BME280;29213;50.770;7.298;2024-01-30T11:20:20;102082.88;;;7.54;60.27
43621;BME280;29213;50.770;7.298;2024-01-30T11:22:46;102082.75;;;7.42;60.96
43621;BME280;29213;50.770;7.298;2024-01-30T11:25:14;102082.56;;;7.45;60.90
43621;BME280;29213;50.770;7.298;2024-01-30T11:27:41;102042.19;;;7.29;60.89
43621;BME280;29213;50.770;7.298;2024-01-30T11:30:07;102009.72;;;7.25;60.94
43621;BME280;29213;50.770;7.298;2024-01-30T11:32:33;102052.44;;;7.59;60.43
43621;BME280;29213;50.770;7.298;2024-01-30T11:34:58;101995.19;;;7.44;60.38
43621;BME280;29213;50.770;7.298;2024-01-30T11:37:25;102046.44;;;7.82;60.34
43621;BME280;29213;50.770;7.298;2024-01-30T11:39:54;102067.50;;;8.09;59.93
43621;BME280;29213;50.770;7.298;2024-01-30T11:42:19;102055.50;;;8.16;59.59
43621;BME280;29213;50.770;7.298;2024-01-30T11:44:48;101984.38;;;7.84;59.47
43621;BME280;29213;50.770;7.298;2024-01-30T11:47:14;102029.44;;;8.10;59.60
43621;BME280;29213;50.770;7.298;2024-01-30T11:49:40;101971.56;;;7.78;59.60
43621;BME280;29213;50.770;7.298;2024-01-30T11:52:05;102050.53;;;8.36;59.30
43621;BME280;29213;50.770;7.298;2024-01-30T11:54:31;101990.81;;;7.93;59.34
43621;BME280;29213;50.770;7.298;2024-01-30T11:56:56;102003.72;;;8.11;59.52
43621;BME280;29213;50.770;7.298;2024-01-30T11:59:22;102046.34;;;8.45;59.42
43621;BME280;29213;50.770;7.298;2024-01-30T12:01:47;102055.69;;;8.51;59.25
43621;BME280;29213;50.770;7.298;2024-01-30T12:04:14;101974.06;;;8.17;59.39
43621;BME280;29213;50.770;7.298;2024-01-30T12:06:40;101993.19;;;8.34;59.10
43621;BME280;29213;50.770;7.298;2024-01-30T12:09:05;102024.44;;;8.54;59.17
43621;BME280;29213;50.770;7.298;2024-01-30T12:11:44;101987.31;;;8.41;58.94
43621;BME280;29213;50.770;7.298;2024-01-30T12:14:09;102044.59;;;8.93;58.88
43621;BME280;29213;50.770;7.298;2024-01-30T12:16:35;101971.22;;;8.56;58.53
43621;BME280;29213;50.770;7.298;2024-01-30T12:19:00;102039.41;;;9.03;58.53
43621;BME280;29213;50.770;7.298;2024-01-30T12:21:28;101901.34;;;8.20;58.57
43621;BME280;29213;50.770;7.298;2024-01-30T12:23:54;101964.56;;;8.62;58.43
43621;BME280;29213;50.770;7.298;2024-01-30T12:26:19;101987.78;;;8.71;58.19
43621;BME280;29213;50.770;7.298;2024-01-30T12:28:54;102026.09;;;8.80;58.37
43621;BME280;29213;50.770;7.298;2024-01-30T12:31:27;101990.81;;;8.66;58.34
43621;BME280;29213;50.770;7.298;2024-01-30T12:33:53;102033.25;;;8.91;58.04
43621;BME280;29213;50.770;7.298;2024-01-30T12:36:19;102042.06;;;8.91;58.14
43621;BME280;29213;50.770;7.298;2024-01-30T12:38:44;102000.59;;;8.77;58.39
43621;BME280;29213;50.770;7.298;2024-01-30T12:41:10;102017.53;;;8.88;58.40
43621;BME280;29213;50.770;7.298;2024-01-30T12:43:36;101970.03;;;8.60;57.98
43621;BME280;29213;50.770;7.298;2024-01-30T12:46:02;102005.31;;;8.85;57.81
43621;BME280;29213;50.770;7.298;2024-01-30T12:48:28;102017.50;;;8.76;57.74
43621;BME280;29213;50.770;7.298;2024-01-30T12:50:56;102022.13;;;8.86;57.36
43621;BME280;29213;50.770;7.298;2024-01-30T12:53:21;102050.03;;;9.03;57.43
43621;BME280;29213;50.770;7.298;2024-01-30T12:55:47;101990.03;;;8.53;57.29